sensor_id;sensor_type;location;lat;lon;timestamp;P1;durP1;ratioP1;P2;durP2;ratioP2
22034;SDS011;11181;51.002;4.356;2022-11-20T00:01:22;15.87;;;11.20;;
22034;SDS011;11181;51.002;4.356;2022-11-20T00:03:51;19.17;;;12.43;;
22034;SDS011;11181;51.002;4.356;2022-11-20T00:06:20;18.63;;;12.87;;
22034;SDS011;11181;51.002;4.356;2022-11-20T00:08:48;22.43;;;13.27;;
22034;SDS011;11181;51.002;4.356;2022-11-20T00:11:16;19.87;;;13.30;;
22034;SDS011;11181;51.002;4.356;2022-11-20T00:13:44;17.77;;;12.27;;
22034;SDS011;11181;51.002;4.356;2022-11-20T00:16:13;20.90;;;12.20;;
22034;SDS011;11181;51.002;4.356;2022-11-20T00:18:41;17.80;;;11.53;;
22034;SDS011;11181;51.002;4.356;2022-11-20T00:21:10;19.87;;;13.10;;
22034;SDS011;11181;51.002;4.356;2022-11-20T00:23:40;21.83;;;13.63;;
22034;SDS011;11181;51.002;4.356;2022-11-20T00:26:08;20.60;;;12.93;;
22034;SDS011;11181;51.002;4.356;2022-11-20T00:28:37;20.80;;;12.70;;
22034;SDS011;11181;51.002;4.356;2022-11-20T00:31:05;21.80;;;13.77;;
22034;SDS011;11181;51.002;4.356;2022-11-20T00:33:33;26.33;;;13.83;;
22034;SDS011;11181;51.002;4.356;2022-11-20T00:36:00;23.10;;;13.80;;
22034;SDS011;11181;51.002;4.356;2022-11-20T00:38:28;22.03;;;13.23;;
22034;SDS011;11181;51.002;4.356;2022-11-20T00:40:57;28.63;;;14.77;;
22034;SDS011;11181;51.002;4.356;2022-11-20T00:43:25;24.03;;;14.53;;
22034;SDS011;11181;51.002;4.356;2022-11-20T00:45:55;21.63;;;14.00;;
22034;SDS011;11181;51.002;4.356;2022-11-20T00:48:23;22.53;;;13.23;;
22034;SDS011;11181;51.002;4.356;2022-11-20T00:50:50;26.13;;;13.43;;
22034;SDS011;11181;51.002;4.356;2022-11-20T00:53:17;21.27;;;14.97;;
22034;SDS011;11181;51.002;4.356;2022-11-20T00:55:51;23.30;;;14.30;;
22034;SDS011;11181;51.002;4.356;2022-11-20T00:58:20;25.67;;;13.23;;
22034;SDS011;11181;51.002;4.356;2022-11-20T01:00:47;19.80;;;12.60;;
22034;SDS011;11181;51.002;4.356;2022-11-20T01:03:15;23.30;;;13.33;;
22034;SDS011;11181;51.002;4.356;2022-11-20T01:05:42;20.70;;;14.30;;
22034;SDS011;11181;51.002;4.356;2022-11-20T01:08:09;23.23;;;14.33;;
22034;SDS011;11181;51.002;4.356;2022-11-20T01:10:36;24.83;;;13.90;;
22034;SDS011;11181;51.002;4.356;2022-11-20T01:13:03;26.50;;;14.27;;
22034;SDS011;11181;51.002;4.356;2022-11-20T01:15:49;22.57;;;14.53;;
22034;SDS011;11181;51.002;4.356;2022-11-20T01:18:16;24.70;;;14.53;;
22034;SDS011;11181;51.002;4.356;2022-11-20T01:20:43;24.83;;;15.80;;
22034;SDS011;11181;51.002;4.356;2022-11-20T01:23:10;24.03;;;15.20;;
22034;SDS011;11181;51.002;4.356;2022-11-20T01:25:36;20.80;;;13.67;;
22034;SDS011;11181;51.002;4.356;2022-11-20T01:28:03;21.97;;;13.03;;
22034;SDS011;11181;51.002;4.356;2022-11-20T01:30:30;21.63;;;13.47;;
22034;SDS011;11181;51.002;4.356;2022-11-20T01:32:58;23.13;;;13.43;;
22034;SDS011;11181;51.002;4.356;2022-11-20T01:35:25;24.87;;;15.07;;
22034;SDS011;11181;51.002;4.356;2022-11-20T01:37:52;24.17;;;14.83;;
22034;SDS011;11181;51.002;4.356;2022-11-20T01:40:19;25.27;;;14.57;;
22034;SDS011;11181;51.002;4.356;2022-11-20T01:42:47;28.80;;;15.00;;
22034;SDS011;11181;51.002;4.356;2022-11-20T01:45:46;25.00;;;13.97;;
22034;SDS011;11181;51.002;4.356;2022-11-20T01:48:31;31.03;;;15.43;;
22034;SDS011;11181;51.002;4.356;2022-11-20T01:51:02;24.23;;;14.93;;
22034;SDS011;11181;51.002;4.356;2022-11-20T01:53:33;26.63;;;14.70;;
22034;SDS011;11181;51.002;4.356;2022-11-20T01:56:03;25.30;;;14.10;;
22034;SDS011;11181;51.002;4.356;2022-11-20T01:58:33;23.70;;;14.10;;
22034;SDS011;11181;51.002;4.356;2022-11-20T02:01:04;22.03;;;14.23;;
22034;SDS011;11181;51.002;4.356;2022-11-20T02:03:32;27.83;;;15.63;;
22034;SDS011;11181;51.002;4.356;2022-11-20T02:06:01;24.20;;;14.97;;
22034;SDS011;11181;51.002;4.356;2022-11-20T02:08:34;29.77;;;15.63;;
22034;SDS011;11181;51.002;4.356;2022-11-20T02:11:02;25.47;;;14.70;;
22034;SDS011;11181;51.002;4.356;2022-11-20T02:13:29;23.13;;;14.50;;
22034;SDS011;11181;51.002;4.356;2022-11-20T02:16:11;29.33;;;16.00;;
22034;SDS011;11181;51.002;4.356;2022-11-20T02:18:42;29.63;;;15.07;;
22034;SDS011;11181;51.002;4.356;2022-11-20T02:21:13;26.80;;;14.90;;
22034;SDS011;11181;51.002;4.356;2022-11-20T02:24:07;23.10;;;15.33;;
22034;SDS011;11181;51.002;4.356;2022-11-20T02:26:42;26.83;;;15.90;;
22034;SDS011;11181;51.002;4.356;2022-11-20T02:29:13;23.30;;;14.33;;
22034;SDS011;11181;51.002;4.356;2022-11-20T02:31:43;27.07;;;16.40;;
22034;SDS011;11181;51.002;4.356;2022-11-20T02:34:11;25.53;;;14.60;;
22034;SDS011;11181;51.002;4.356;2022-11-20T02:36:38;25.60;;;14.03;;
22034;SDS011;11181;51.002;4.356;2022-11-20T02:39:08;22.00;;;14.53;;
22034;SDS011;11181;51.002;4.356;2022-11-20T02:41:37;32.03;;;14.90;;
22034;SDS011;11181;51.002;4.356;2022-11-20T02:44:05;29.97;;;16.57;;
22034;SDS011;11181;51.002;4.356;2022-11-20T02:46:32;29.50;;;15.97;;
22034;SDS011;11181;51.002;4.356;2022-11-20T02:49:00;25.20;;;15.93;;
22034;SDS011;11181;51.002;4.356;2022-11-20T02:51:27;28.07;;;15.73;;
22034;SDS011;11181;51.002;4.356;2022-11-20T02:53:54;27.77;;;16.70;;
22034;SDS011;11181;51.002;4.356;2022-11-20T02:56:22;29.43;;;16.07;;
22034;SDS011;11181;51.002;4.356;2022-11-20T02:58:50;32.47;;;17.80;;
22034;SDS011;11181;51.002;4.356;2022-11-20T03:01:17;30.07;;;16.43;;
22034;SDS011;11181;51.002;4.356;2022-11-20T03:03:44;34.63;;;17.63;;
22034;SDS011;11181;51.002;4.356;2022-11-20T03:06:13;29.20;;;16.10;;
22034;SDS011;11181;51.002;4.356;2022-11-20T03:08:40;32.97;;;16.70;;
22034;SDS011;11181;51.002;4.356;2022-11-20T03:11:08;34.07;;;16.30;;
22034;SDS011;11181;51.002;4.356;2022-11-20T03:13:36;31.17;;;16.60;;
22034;SDS011;11181;51.002;4.356;2022-11-20T03:16:07;36.93;;;19.00;;
22034;SDS011;11181;51.002;4.356;2022-11-20T03:18:35;30.00;;;17.90;;
22034;SDS011;11181;51.002;4.356;2022-11-20T03:21:02;35.67;;;17.67;;
22034;SDS011;11181;51.002;4.356;2022-11-20T03:23:30;35.03;;;18.43;;
22034;SDS011;11181;51.002;4.356;2022-11-20T03:26:11;30.70;;;17.87;;
22034;SDS011;11181;51.002;4.356;2022-11-20T03:28:41;31.97;;;17.93;;
22034;SDS011;11181;51.002;4.356;2022-11-20T03:31:09;33.10;;;17.50;;
22034;SDS011;11181;51.002;4.356;2022-11-20T03:33:36;34.53;;;17.03;;
22034;SDS011;11181;51.002;4.356;2022-11-20T03:36:04;32.90;;;17.67;;
22034;SDS011;11181;51.002;4.356;2022-11-20T03:38:33;34.40;;;17.77;;
22034;SDS011;11181;51.002;4.356;2022-11-20T03:41:00;33.97;;;19.17;;
22034;SDS011;11181;51.002;4.356;2022-11-20T03:43:28;34.13;;;18.30;;
22034;SDS011;11181;51.002;4.356;2022-11-20T03:45:56;33.57;;;17.60;;
22034;SDS011;11181;51.002;4.356;2022-11-20T03:48:23;43.03;;;19.27;;
22034;SDS011;11181;51.002;4.356;2022-11-20T03:50:51;31.30;;;17.83;;
22034;SDS011;11181;51.002;4.356;2022-11-20T03:53:18;33.27;;;19.33;;
22034;SDS011;11181;51.002;4.356;2022-11-20T03:55:50;33.07;;;18.57;;
22034;SDS011;11181;51.002;4.356;2022-11-20T03:58:17;31.67;;;17.87;;
22034;SDS011;11181;51.002;4.356;2022-11-20T04:00:44;35.67;;;18.67;;
22034;SDS011;11181;51.002;4.356;2022-11-20T04:03:12;37.93;;;18.63;;
22034;SDS011;11181;51.002;4.356;2022-11-20T04:05:39;34.33;;;19.80;;
22034;SDS011;11181;51.002;4.356;2022-11-20T04:08:06;33.83;;;19.13;;
22034;SDS011;11181;51.002;4.356;2022-11-20T04:10:33;30.17;;;16.80;;
22034;SDS011;11181;51.002;4.356;2022-11-20T04:13:00;35.97;;;18.87;;
22034;SDS011;11181;51.002;4.356;2022-11-20T04:15:27;46.57;;;20.00;;
22034;SDS011;11181;51.002;4.356;2022-11-20T04:17:54;31.63;;;17.03;;
22034;SDS011;11181;51.002;4.356;2022-11-20T04:20:22;37.40;;;18.23;;
22034;SDS011;11181;51.002;4.356;2022-11-20T04:22:49;36.27;;;19.13;;
22034;SDS011;11181;51.002;4.356;2022-11-20T04:25:19;29.67;;;17.10;;
22034;SDS011;11181;51.002;4.356;2022-11-20T04:27:46;32.37;;;17.73;;
22034;SDS011;11181;51.002;4.356;2022-11-20T04:30:13;35.23;;;17.63;;
22034;SDS011;11181;51.002;4.356;2022-11-20T04:32:40;31.47;;;18.33;;
22034;SDS011;11181;51.002;4.356;2022-11-20T04:35:07;30.03;;;17.40;;
22034;SDS011;11181;51.002;4.356;2022-11-20T04:37:35;29.37;;;16.90;;
22034;SDS011;11181;51.002;4.356;2022-11-20T04:40:02;34.30;;;19.43;;
22034;SDS011;11181;51.002;4.356;2022-11-20T04:42:30;31.37;;;18.00;;
22034;SDS011;11181;51.002;4.356;2022-11-20T04:44:57;32.17;;;16.93;;
22034;SDS011;11181;51.002;4.356;2022-11-20T04:47:24;38.33;;;18.97;;
22034;SDS011;11181;51.002;4.356;2022-11-20T04:49:51;29.73;;;17.17;;
22034;SDS011;11181;51.002;4.356;2022-11-20T04:52:18;28.10;;;16.57;;
22034;SDS011;11181;51.002;4.356;2022-11-20T04:54:46;32.13;;;16.63;;
22034;SDS011;11181;51.002;4.356;2022-11-20T04:57:14;28.23;;;17.07;;
22034;SDS011;11181;51.002;4.356;2022-11-20T04:59:41;30.40;;;16.50;;
22034;SDS011;11181;51.002;4.356;2022-11-20T05:02:08;27.57;;;16.90;;
22034;SDS011;11181;51.002;4.356;2022-11-20T05:04:36;33.10;;;17.27;;
22034;SDS011;11181;51.002;4.356;2022-11-20T05:07:03;27.57;;;16.60;;
22034;SDS011;11181;51.002;4.356;2022-11-20T05:09:30;30.87;;;17.90;;
22034;SDS011;11181;51.002;4.356;2022-11-20T05:11:58;29.57;;;18.30;;
22034;SDS011;11181;51.002;4.356;2022-11-20T05:14:25;32.07;;;17.13;;
22034;SDS011;11181;51.002;4.356;2022-11-20T05:16:52;29.03;;;17.20;;
22034;SDS011;11181;51.002;4.356;2022-11-20T05:19:19;27.17;;;16.27;;
22034;SDS011;11181;51.002;4.356;2022-11-20T05:21:46;34.07;;;19.83;;
22034;SDS011;11181;51.002;4.356;2022-11-20T05:24:13;30.33;;;17.53;;
22034;SDS011;11181;51.002;4.356;2022-11-20T05:26:40;28.63;;;16.93;;
22034;SDS011;11181;51.002;4.356;2022-11-20T05:29:10;30.63;;;16.73;;
22034;SDS011;11181;51.002;4.356;2022-11-20T05:31:38;30.43;;;17.67;;
22034;SDS011;11181;51.002;4.356;2022-11-20T05:34:06;29.50;;;16.27;;
22034;SDS011;11181;51.002;4.356;2022-11-20T05:36:33;25.87;;;15.50;;
22034;SDS011;11181;51.002;4.356;2022-11-20T05:39:00;32.27;;;16.97;;
22034;SDS011;11181;51.002;4.356;2022-11-20T05:41:27;27.70;;;16.10;;
22034;SDS011;11181;51.002;4.356;2022-11-20T05:43:55;26.93;;;16.33;;
22034;SDS011;11181;51.002;4.356;2022-11-20T05:46:25;28.27;;;17.07;;
22034;SDS011;11181;51.002;4.356;2022-11-20T05:48:52;30.00;;;16.83;;
22034;SDS011;11181;51.002;4.356;2022-11-20T05:51:19;29.93;;;16.53;;
22034;SDS011;11181;51.002;4.356;2022-11-20T05:53:46;29.53;;;15.13;;
22034;SDS011;11181;51.002;4.356;2022-11-20T05:56:14;28.77;;;14.73;;
22034;SDS011;11181;51.002;4.356;2022-11-20T05:58:42;30.10;;;17.10;;
22034;SDS011;11181;51.002;4.356;2022-11-20T06:01:11;29.50;;;15.97;;
22034;SDS011;11181;51.002;4.356;2022-11-20T06:03:42;31.43;;;16.67;;
22034;SDS011;11181;51.002;4.356;2022-11-20T06:06:12;27.20;;;14.40;;
22034;SDS011;11181;51.002;4.356;2022-11-20T06:08:40;29.03;;;16.17;;
22034;SDS011;11181;51.002;4.356;2022-11-20T06:11:08;27.40;;;16.33;;
22034;SDS011;11181;51.002;4.356;2022-11-20T06:13:36;27.03;;;14.13;;
22034;SDS011;11181;51.002;4.356;2022-11-20T06:16:03;27.67;;;16.90;;
22034;SDS011;11181;51.002;4.356;2022-11-20T06:18:30;31.27;;;16.97;;
22034;SDS011;11181;51.002;4.356;2022-11-20T06:21:03;27.83;;;15.57;;
22034;SDS011;11181;51.002;4.356;2022-11-20T06:23:32;32.00;;;15.50;;
22034;SDS011;11181;51.002;4.356;2022-11-20T06:26:01;29.57;;;16.20;;
22034;SDS011;11181;51.002;4.356;2022-11-20T06:28:29;27.27;;;15.53;;
22034;SDS011;11181;51.002;4.356;2022-11-20T06:30:56;31.63;;;16.67;;
22034;SDS011;11181;51.002;4.356;2022-11-20T06:33:23;29.77;;;16.23;;
22034;SDS011;11181;51.002;4.356;2022-11-20T06:35:51;29.70;;;16.53;;
22034;SDS011;11181;51.002;4.356;2022-11-20T06:38:19;28.10;;;16.87;;
22034;SDS011;11181;51.002;4.356;2022-11-20T06:40:46;28.77;;;16.50;;
22034;SDS011;11181;51.002;4.356;2022-11-20T06:43:13;25.73;;;14.83;;
22034;SDS011;11181;51.002;4.356;2022-11-20T06:45:40;28.93;;;15.47;;
22034;SDS011;11181;51.002;4.356;2022-11-20T06:48:07;31.53;;;17.00;;
22034;SDS011;11181;51.002;4.356;2022-11-20T06:50:36;28.33;;;15.07;;
22034;SDS011;11181;51.002;4.356;2022-11-20T06:53:03;31.93;;;16.93;;
22034;SDS011;11181;51.002;4.356;2022-11-20T06:55:32;30.40;;;15.10;;
22034;SDS011;11181;51.002;4.356;2022-11-20T06:57:59;31.27;;;15.60;;
22034;SDS011;11181;51.002;4.356;2022-11-20T07:00:26;30.73;;;16.67;;
22034;SDS011;11181;51.002;4.356;2022-11-20T07:02:53;35.77;;;16.73;;
22034;SDS011;11181;51.002;4.356;2022-11-20T07:05:20;27.93;;;15.67;;
22034;SDS011;11181;51.002;4.356;2022-11-20T07:07:47;27.50;;;14.43;;
22034;SDS011;11181;51.002;4.356;2022-11-20T07:10:13;28.97;;;15.53;;
22034;SDS011;11181;51.002;4.356;2022-11-20T07:12:42;31.70;;;17.40;;
22034;SDS011;11181;51.002;4.356;2022-11-20T07:15:15;33.73;;;17.30;;
22034;SDS011;11181;51.002;4.356;2022-11-20T07:17:41;30.83;;;16.87;;
22034;SDS011;11181;51.002;4.356;2022-11-20T07:20:09;29.73;;;15.43;;
22034;SDS011;11181;51.002;4.356;2022-11-20T07:22:36;30.40;;;16.27;;
22034;SDS011;11181;51.002;4.356;2022-11-20T07:25:03;34.70;;;17.13;;
22034;SDS011;11181;51.002;4.356;2022-11-20T07:27:31;33.43;;;17.23;;
22034;SDS011;11181;51.002;4.356;2022-11-20T07:29:59;33.17;;;17.37;;
22034;SDS011;11181;51.002;4.356;2022-11-20T07:32:26;33.57;;;16.37;;
22034;SDS011;11181;51.002;4.356;2022-11-20T07:34:53;35.40;;;18.00;;
22034;SDS011;11181;51.002;4.356;2022-11-20T07:37:20;32.87;;;17.63;;
22034;SDS011;11181;51.002;4.356;2022-11-20T07:39:47;31.43;;;17.00;;
22034;SDS011;11181;51.002;4.356;2022-11-20T07:42:14;39.60;;;18.00;;
22034;SDS011;11181;51.002;4.356;2022-11-20T07:44:40;34.03;;;16.30;;
22034;SDS011;11181;51.002;4.356;2022-11-20T07:47:09;34.20;;;17.47;;
22034;SDS011;11181;51.002;4.356;2022-11-20T07:49:36;33.93;;;16.80;;
22034;SDS011;11181;51.002;4.356;2022-11-20T07:52:02;33.37;;;16.80;;
22034;SDS011;11181;51.002;4.356;2022-11-20T07:54:29;32.47;;;15.67;;
22034;SDS011;11181;51.002;4.356;2022-11-20T07:56:56;33.80;;;16.50;;
22034;SDS011;11181;51.002;4.356;2022-11-20T07:59:23;29.27;;;17.00;;
22034;SDS011;11181;51.002;4.356;2022-11-20T08:01:50;30.90;;;16.67;;
22034;SDS011;11181;51.002;4.356;2022-11-20T08:04:18;32.73;;;17.07;;
22034;SDS011;11181;51.002;4.356;2022-11-20T08:06:45;34.17;;;17.33;;
22034;SDS011;11181;51.002;4.356;2022-11-20T08:09:12;26.40;;;15.10;;
22034;SDS011;11181;51.002;4.356;2022-11-20T08:11:39;32.57;;;16.37;;
22034;SDS011;11181;51.002;4.356;2022-11-20T08:14:23;34.43;;;16.43;;
22034;SDS011;11181;51.002;4.356;2022-11-20T08:16:52;34.13;;;16.87;;
22034;SDS011;11181;51.002;4.356;2022-11-20T08:19:20;37.00;;;17.80;;
22034;SDS011;11181;51.002;4.356;2022-11-20T08:21:47;33.03;;;17.40;;
22034;SDS011;11181;51.002;4.356;2022-11-20T08:24:14;36.10;;;17.07;;
22034;SDS011;11181;51.002;4.356;2022-11-20T08:26:41;34.23;;;17.20;;
22034;SDS011;11181;51.002;4.356;2022-11-20T08:29:08;36.63;;;16.93;;
22034;SDS011;11181;51.002;4.356;2022-11-20T08:31:35;37.40;;;19.10;;
22034;SDS011;11181;51.002;4.356;2022-11-20T08:34:02;35.97;;;18.70;;
22034;SDS011;11181;51.002;4.356;2022-11-20T08:36:32;40.17;;;19.27;;
22034;SDS011;11181;51.002;4.356;2022-11-20T08:39:00;31.10;;;16.90;;
22034;SDS011;11181;51.002;4.356;2022-11-20T08:41:27;36.20;;;19.10;;
22034;SDS011;11181;51.002;4.356;2022-11-20T08:43:56;36.23;;;17.43;;
22034;SDS011;11181;51.002;4.356;2022-11-20T08:46:24;39.97;;;19.23;;
22034;SDS011;11181;51.002;4.356;2022-11-20T08:48:53;40.13;;;19.53;;
22034;SDS011;11181;51.002;4.356;2022-11-20T08:51:20;46.70;;;18.87;;
22034;SDS011;11181;51.002;4.356;2022-11-20T08:53:48;43.40;;;21.10;;
22034;SDS011;11181;51.002;4.356;2022-11-20T08:56:15;40.73;;;20.00;;
22034;SDS011;11181;51.002;4.356;2022-11-20T08:58:43;42.63;;;19.33;;
22034;SDS011;11181;51.002;4.356;2022-11-20T09:01:10;45.10;;;20.70;;
22034;SDS011;11181;51.002;4.356;2022-11-20T09:03:37;41.83;;;20.07;;
22034;SDS011;11181;51.002;4.356;2022-11-20T09:06:05;48.30;;;19.73;;
22034;SDS011;11181;51.002;4.356;2022-11-20T09:08:33;46.43;;;19.00;;
22034;SDS011;11181;51.002;4.356;2022-11-20T09:11:04;42.80;;;17.33;;
22034;SDS011;11181;51.002;4.356;2022-11-20T09:13:31;39.40;;;18.20;;
22034;SDS011;11181;51.002;4.356;2022-11-20T09:16:00;49.63;;;19.77;;
22034;SDS011;11181;51.002;4.356;2022-11-20T09:18:28;49.50;;;21.53;;
22034;SDS011;11181;51.002;4.356;2022-11-20T09:20:57;52.10;;;19.40;;
22034;SDS011;11181;51.002;4.356;2022-11-20T09:23:24;46.33;;;19.60;;
22034;SDS011;11181;51.002;4.356;2022-11-20T09:25:51;42.50;;;20.47;;
22034;SDS011;11181;51.002;4.356;2022-11-20T09:28:21;46.83;;;19.43;;
22034;SDS011;11181;51.002;4.356;2022-11-20T09:30:48;48.80;;;19.70;;
22034;SDS011;11181;51.002;4.356;2022-11-20T09:33:15;47.17;;;22.03;;
22034;SDS011;11181;51.002;4.356;2022-11-20T09:35:43;44.80;;;20.00;;
22034;SDS011;11181;51.002;4.356;2022-11-20T09:38:10;42.30;;;18.73;;
22034;SDS011;11181;51.002;4.356;2022-11-20T09:40:39;47.63;;;19.30;;
22034;SDS011;11181;51.002;4.356;2022-11-20T09:43:11;49.73;;;21.10;;
22034;SDS011;11181;51.002;4.356;2022-11-20T09:45:52;40.73;;;19.40;;
22034;SDS011;11181;51.002;4.356;2022-11-20T09:51:21;46.33;;;21.07;;
22034;SDS011;11181;51.002;4.356;2022-11-20T09:54:00;50.50;;;19.87;;
22034;SDS011;11181;51.002;4.356;2022-11-20T09:56:33;44.70;;;20.30;;
22034;SDS011;11181;51.002;4.356;2022-11-20T09:59:04;46.77;;;19.57;;
22034;SDS011;11181;51.002;4.356;2022-11-20T10:01:34;38.30;;;19.03;;
22034;SDS011;11181;51.002;4.356;2022-11-20T10:04:03;38.17;;;17.77;;
22034;SDS011;11181;51.002;4.356;2022-11-20T10:06:37;39.97;;;18.30;;
22034;SDS011;11181;51.002;4.356;2022-11-20T10:09:14;37.53;;;18.63;;
22034;SDS011;11181;51.002;4.356;2022-11-20T10:11:48;37.23;;;17.53;;
22034;SDS011;11181;51.002;4.356;2022-11-20T10:14:25;36.07;;;18.27;;
22034;SDS011;11181;51.002;4.356;2022-11-20T10:17:02;37.07;;;16.60;;
22034;SDS011;11181;51.002;4.356;2022-11-20T10:19:45;40.77;;;18.83;;
22034;SDS011;11181;51.002;4.356;2022-11-20T10:22:27;42.27;;;19.33;;
22034;SDS011;11181;51.002;4.356;2022-11-20T10:25:10;37.77;;;19.23;;
22034;SDS011;11181;51.002;4.356;2022-11-20T10:27:44;42.67;;;18.97;;
22034;SDS011;11181;51.002;4.356;2022-11-20T10:30:20;39.50;;;18.23;;
22034;SDS011;11181;51.002;4.356;2022-11-20T10:32:52;41.43;;;19.30;;
22034;SDS011;11181;51.002;4.356;2022-11-20T10:35:22;38.67;;;17.97;;
22034;SDS011;11181;51.002;4.356;2022-11-20T10:37:54;44.13;;;19.77;;
22034;SDS011;11181;51.002;4.356;2022-11-20T10:40:27;43.03;;;18.50;;
22034;SDS011;11181;51.002;4.356;2022-11-20T10:42:59;46.13;;;19.90;;
22034;SDS011;11181;51.002;4.356;2022-11-20T10:45:35;36.97;;;17.17;;
22034;SDS011;11181;51.002;4.356;2022-11-20T10:48:12;36.00;;;17.47;;
22034;SDS011;11181;51.002;4.356;2022-11-20T10:50:47;40.27;;;18.70;;
22034;SDS011;11181;51.002;4.356;2022-11-20T10:53:31;35.70;;;16.30;;
22034;SDS011;11181;51.002;4.356;2022-11-20T10:56:16;30.73;;;13.67;;
22034;SDS011;11181;51.002;4.356;2022-11-20T10:58:49;28.03;;;13.70;;
22034;SDS011;11181;51.002;4.356;2022-11-20T11:01:26;26.63;;;13.57;;
22034;SDS011;11181;51.002;4.356;2022-11-20T11:03:55;33.43;;;14.50;;
22034;SDS011;11181;51.002;4.356;2022-11-20T11:06:25;20.83;;;10.97;;
22034;SDS011;11181;51.002;4.356;2022-11-20T11:08:59;21.57;;;10.83;;
22034;SDS011;11181;51.002;4.356;2022-11-20T11:11:31;17.57;;;9.17;;
22034;SDS011;11181;51.002;4.356;2022-11-20T11:14:05;15.70;;;9.00;;
22034;SDS011;11181;51.002;4.356;2022-11-20T11:16:33;12.53;;;7.10;;
22034;SDS011;11181;51.002;4.356;2022-11-20T11:19:05;10.10;;;5.70;;
22034;SDS011;11181;51.002;4.356;2022-11-20T11:21:37;11.73;;;6.00;;
22034;SDS011;11181;51.002;4.356;2022-11-20T11:24:15;8.50;;;5.70;;
22034;SDS011;11181;51.002;4.356;2022-11-20T11:26:51;11.73;;;5.03;;
22034;SDS011;11181;51.002;4.356;2022-11-20T11:29:21;10.17;;;4.63;;
22034;SDS011;11181;51.002;4.356;2022-11-20T11:31:48;7.73;;;3.43;;
22034;SDS011;11181;51.002;4.356;2022-11-20T11:34:17;12.60;;;4.73;;
22034;SDS011;11181;51.002;4.356;2022-11-20T11:36:49;7.07;;;3.87;;
22034;SDS011;11181;51.002;4.356;2022-11-20T11:39:18;9.60;;;3.63;;
22034;SDS011;11181;51.002;4.356;2022-11-20T11:41:48;9.67;;;4.83;;
22034;SDS011;11181;51.002;4.356;2022-11-20T11:44:17;12.20;;;6.50;;
22034;SDS011;11181;51.002;4.356;2022-11-20T11:47:02;13.07;;;7.23;;
22034;SDS011;11181;51.002;4.356;2022-11-20T11:49:32;10.27;;;5.00;;
22034;SDS011;11181;51.002;4.356;2022-11-20T11:52:01;8.10;;;4.90;;
22034;SDS011;11181;51.002;4.356;2022-11-20T11:54:35;5.27;;;3.20;;
22034;SDS011;11181;51.002;4.356;2022-11-20T11:57:10;8.73;;;4.17;;
22034;SDS011;11181;51.002;4.356;2022-11-20T11:59:51;9.17;;;4.93;;
22034;SDS011;11181;51.002;4.356;2022-11-20T12:02:27;12.57;;;6.83;;
22034;SDS011;11181;51.002;4.356;2022-11-20T12:05:02;9.70;;;4.10;;
22034;SDS011;11181;51.002;4.356;2022-11-20T12:07:38;8.13;;;3.70;;
22034;SDS011;11181;51.002;4.356;2022-11-20T12:10:13;9.73;;;4.20;;
22034;SDS011;11181;51.002;4.356;2022-11-20T12:12:44;7.53;;;3.50;;
22034;SDS011;11181;51.002;4.356;2022-11-20T12:15:15;12.57;;;4.07;;
22034;SDS011;11181;51.002;4.356;2022-11-20T12:17:48;9.73;;;4.03;;
22034;SDS011;11181;51.002;4.356;2022-11-20T12:20:17;8.10;;;3.83;;
22034;SDS011;11181;51.002;4.356;2022-11-20T12:22:47;6.70;;;3.83;;
22034;SDS011;11181;51.002;4.356;2022-11-20T12:25:22;6.17;;;3.80;;
22034;SDS011;11181;51.002;4.356;2022-11-20T12:28:05;13.07;;;6.83;;
22034;SDS011;11181;51.002;4.356;2022-11-20T12:30:48;9.60;;;4.33;;
22034;SDS011;11181;51.002;4.356;2022-11-20T12:33:39;14.67;;;8.83;;
22034;SDS011;11181;51.002;4.356;2022-11-20T12:36:21;7.57;;;3.80;;
22034;SDS011;11181;51.002;4.356;2022-11-20T12:38:59;7.23;;;4.20;;
22034;SDS011;11181;51.002;4.356;2022-11-20T12:41:45;9.70;;;4.90;;
22034;SDS011;11181;51.002;4.356;2022-11-20T12:44:54;4.97;;;3.20;;
22034;SDS011;11181;51.002;4.356;2022-11-20T12:47:38;6.47;;;3.43;;
22034;SDS011;11181;51.002;4.356;2022-11-20T12:50:28;5.40;;;3.37;;
22034;SDS011;11181;51.002;4.356;2022-11-20T12:53:05;8.63;;;3.97;;
22034;SDS011;11181;51.002;4.356;2022-11-20T12:55:42;10.30;;;6.00;;
22034;SDS011;11181;51.002;4.356;2022-11-20T12:58:17;6.90;;;3.50;;
22034;SDS011;11181;51.002;4.356;2022-11-20T13:00:54;8.93;;;5.13;;
22034;SDS011;11181;51.002;4.356;2022-11-20T13:03:36;17.13;;;8.03;;
22034;SDS011;11181;51.002;4.356;2022-11-20T13:06:10;13.67;;;7.57;;
22034;SDS011;11181;51.002;4.356;2022-11-20T13:08:43;12.50;;;5.00;;
22034;SDS011;11181;51.002;4.356;2022-11-20T13:11:15;9.23;;;5.03;;
22034;SDS011;11181;51.002;4.356;2022-11-20T13:13:52;8.10;;;3.90;;
22034;SDS011;11181;51.002;4.356;2022-11-20T13:16:38;8.50;;;4.33;;
22034;SDS011;11181;51.002;4.356;2022-11-20T13:19:13;8.60;;;5.10;;
22034;SDS011;11181;51.002;4.356;2022-11-20T13:21:43;5.60;;;4.00;;
22034;SDS011;11181;51.002;4.356;2022-11-20T13:24:21;7.30;;;4.03;;
22034;SDS011;11181;51.002;4.356;2022-11-20T13:27:01;4.33;;;3.60;;
22034;SDS011;11181;51.002;4.356;2022-11-20T13:29:29;7.30;;;3.83;;
22034;SDS011;11181;51.002;4.356;2022-11-20T13:32:06;4.67;;;2.90;;
22034;SDS011;11181;51.002;4.356;2022-11-20T13:34:50;6.33;;;3.23;;
22034;SDS011;11181;51.002;4.356;2022-11-20T13:37:24;5.00;;;3.90;;
22034;SDS011;11181;51.002;4.356;2022-11-20T13:40:04;7.97;;;4.17;;
22034;SDS011;11181;51.002;4.356;2022-11-20T13:42:54;5.07;;;3.53;;
22034;SDS011;11181;51.002;4.356;2022-11-20T13:45:23;4.43;;;3.20;;
22034;SDS011;11181;51.002;4.356;2022-11-20T13:47:52;8.27;;;3.20;;
22034;SDS011;11181;51.002;4.356;2022-11-20T13:50:20;2.43;;;2.20;;
22034;SDS011;11181;51.002;4.356;2022-11-20T13:53:04;3.67;;;2.87;;
22034;SDS011;11181;51.002;4.356;2022-11-20T13:55:47;5.43;;;2.80;;
22034;SDS011;11181;51.002;4.356;2022-11-20T13:58:24;3.43;;;3.13;;
22034;SDS011;11181;51.002;4.356;2022-11-20T14:01:08;4.03;;;2.40;;
22034;SDS011;11181;51.002;4.356;2022-11-20T14:03:37;5.80;;;2.40;;
22034;SDS011;11181;51.002;4.356;2022-11-20T14:06:05;3.30;;;2.30;;
22034;SDS011;11181;51.002;4.356;2022-11-20T14:08:40;3.00;;;2.20;;
22034;SDS011;11181;51.002;4.356;2022-11-20T14:11:15;2.40;;;2.20;;
22034;SDS011;11181;51.002;4.356;2022-11-20T14:13:52;2.77;;;2.23;;
22034;SDS011;11181;51.002;4.356;2022-11-20T14:16:24;4.77;;;2.73;;
22034;SDS011;11181;51.002;4.356;2022-11-20T14:18:52;3.20;;;1.80;;
22034;SDS011;11181;51.002;4.356;2022-11-20T14:21:23;2.60;;;2.30;;
22034;SDS011;11181;51.002;4.356;2022-11-20T14:23:54;3.30;;;2.63;;
22034;SDS011;11181;51.002;4.356;2022-11-20T14:26:30;2.17;;;1.97;;
22034;SDS011;11181;51.002;4.356;2022-11-20T14:28:58;3.60;;;2.40;;
22034;SDS011;11181;51.002;4.356;2022-11-20T14:31:25;3.67;;;1.70;;
22034;SDS011;11181;51.002;4.356;2022-11-20T14:33:54;5.57;;;2.30;;
22034;SDS011;11181;51.002;4.356;2022-11-20T14:36:22;2.00;;;1.70;;
22034;SDS011;11181;51.002;4.356;2022-11-20T14:38:50;2.37;;;2.17;;
22034;SDS011;11181;51.002;4.356;2022-11-20T14:41:19;2.33;;;1.73;;
22034;SDS011;11181;51.002;4.356;2022-11-20T14:43:49;1.83;;;1.63;;
22034;SDS011;11181;51.002;4.356;2022-11-20T14:46:20;3.43;;;1.87;;
22034;SDS011;11181;51.002;4.356;2022-11-20T14:48:49;3.20;;;1.87;;